This is the latest recevied weather packets stored in our database for station/object KE8AFF-13. If no packets are shown the sender has not sent any weather packets the latest 10 day(s).
| Time | Temp. | Humidity | Pressure | Rain* | Wind** | Luminosity | Snow |
|---|---|---|---|---|---|---|---|
| 1777756492 | 6.67° C | 73% | 1017.3 hPa | 0 mm | - | 113 W/m² | - |
| 1777756190 | 6.67° C | 73% | 1017.5 hPa | 0 mm | - | 120 W/m² | - |
| 1777755886 | 6.67° C | 73% | 1017.4 hPa | 0 mm | - | 115 W/m² | - |
| 1777755583 | 6.67° C | 75% | 1017.5 hPa | 0 mm | - | 131 W/m² | - |
| 1777755279 | 6.67° C | 73% | 1017.4 hPa | 0 mm | - | 127 W/m² | - |
| 1777754977 | 6.67° C | 72% | 1017.4 hPa | 0 mm | - | 110 W/m² | - |
| 1777754674 | 6.67° C | 75% | 1017.4 hPa | 0 mm | - | 88 W/m² | - |
| 1777754372 | 6.67° C | 75% | 1017.4 hPa | 0 mm | - | 87 W/m² | - |
| 1777754069 | 6.67° C | 74% | 1017.3 hPa | 0 mm | - | 124 W/m² | - |
| 1777753765 | 6.67° C | 74% | 1017.4 hPa | 1.27 mm | - | 190 W/m² | - |
| 1777753462 | 6.67° C | 74% | 1017.6 hPa | 1.78 mm | - | 209 W/m² | - |
| 1777753160 | 6.67° C | 75% | 1017.8 hPa | 0.51 mm | - | 443 W/m² | - |
| 1777752855 | 6.11° C | 77% | 1017.4 hPa | 0 mm | - | 220 W/m² | - |
| 1777752553 | 6.11° C | 78% | 1017.6 hPa | 0 mm | - | 150 W/m² | - |
| 1777752248 | 6.11° C | 78% | 1017.5 hPa | 0 mm | - | 128 W/m² | - |
| 1777751946 | 6.11° C | 76% | 1017.7 hPa | 0 mm | - | 118 W/m² | - |
| 1777751643 | 6.67° C | 76% | 1017.8 hPa | 0 mm | - | 196 W/m² | - |
| 1777751339 | 6.67° C | 75% | 1017.7 hPa | 0 mm | - | 182 W/m² | - |
| 1777751036 | 6.67° C | 69% | 1017.7 hPa | 0 mm | - | 184 W/m² | - |
| 1777750732 | 6.67° C | 67% | 1017.9 hPa | 0 mm | - | 278 W/m² | - |
| 1777750429 | 7.22° C | 71% | 1017.9 hPa | 0 mm | - | 223 W/m² | - |
| 1777750125 | 6.67° C | 70% | 1018 hPa | 0 mm | - | 214 W/m² | - |
| 1777749822 | 6.67° C | 71% | 1018 hPa | 0 mm | - | 207 W/m² | - |
| 1777749519 | 6.67° C | 72% | 1017.9 hPa | 0 mm | - | 235 W/m² | - |
| 1777749217 | 6.11° C | 71% | 1017.8 hPa | 0 mm | - | 203 W/m² | - |
* Rain latest hour (hover to see other rain measurements)
** Current wind speed in m/s (hover to see current wind gust speed)